sensor_id;sensor_type;location;lat;lon;timestamp;pressure;altitude;pressure_sealevel;temperature
73662;BMP280;61956;52.540;13.382;2023-01-08T00:02:18;87256.28;;;9.12
73662;BMP280;61956;52.540;13.382;2023-01-08T00:04:47;86485.22;;;9.06
73662;BMP280;61956;52.540;13.382;2023-01-08T00:07:17;85874.09;;;8.99
73662;BMP280;61956;52.540;13.382;2023-01-08T00:09:46;85898.44;;;8.96
73662;BMP280;61956;52.540;13.382;2023-01-08T00:12:15;86658.63;;;8.98
73662;BMP280;61956;52.540;13.382;2023-01-08T00:14:47;86490.50;;;8.96
73662;BMP280;61956;52.540;13.382;2023-01-08T00:17:16;86634.00;;;8.95
73662;BMP280;61956;52.540;13.382;2023-01-08T00:19:45;87313.34;;;8.99
73662;BMP280;61956;52.540;13.382;2023-01-08T00:22:14;86407.91;;;8.92
73662;BMP280;61956;52.540;13.382;2023-01-08T00:24:43;86474.16;;;8.91
73662;BMP280;61956;52.540;13.382;2023-01-08T00:27:12;86738.00;;;8.90
73662;BMP280;61956;52.540;13.382;2023-01-08T00:29:41;85843.88;;;8.84
73662;BMP280;61956;52.540;13.382;2023-01-08T00:32:13;85212.63;;;8.77
73662;BMP280;61956;52.540;13.382;2023-01-08T00:34:42;85164.91;;;8.74
73662;BMP280;61956;52.540;13.382;2023-01-08T00:37:11;85633.22;;;8.76
73662;BMP280;61956;52.540;13.382;2023-01-08T00:39:43;85632.47;;;8.73
73662;BMP280;61956;52.540;13.382;2023-01-08T00:42:12;84953.19;;;8.67
73662;BMP280;61956;52.540;13.382;2023-01-08T00:44:41;84724.84;;;8.64
73662;BMP280;61956;52.540;13.382;2023-01-08T00:47:13;83808.16;;;8.57
73662;BMP280;61956;52.540;13.382;2023-01-08T00:49:42;83518.97;;;8.51
73662;BMP280;61956;52.540;13.382;2023-01-08T00:52:11;83940.50;;;8.53
73662;BMP280;61956;52.540;13.382;2023-01-08T00:54:41;83145.09;;;8.44
73662;BMP280;61956;52.540;13.382;2023-01-08T00:57:10;83251.72;;;8.43
73662;BMP280;61956;52.540;13.382;2023-01-08T00:59:39;82411.75;;;8.35
73662;BMP280;61956;52.540;13.382;2023-01-08T01:02:09;82480.47;;;8.35
73662;BMP280;61956;52.540;13.382;2023-01-08T01:04:41;82861.91;;;8.34
73662;BMP280;61956;52.540;13.382;2023-01-08T01:07:10;83262.59;;;8.36
73662;BMP280;61956;52.540;13.382;2023-01-08T01:09:39;82775.19;;;8.30
73662;BMP280;61956;52.540;13.382;2023-01-08T01:12:08;82969.78;;;8.29
73662;BMP280;61956;52.540;13.382;2023-01-08T01:14:38;83172.69;;;8.29
73662;BMP280;61956;52.540;13.382;2023-01-08T01:17:07;83658.25;;;8.32
73662;BMP280;61956;52.540;13.382;2023-01-08T01:19:40;83412.84;;;8.28
73662;BMP280;61956;52.540;13.382;2023-01-08T01:22:09;83709.59;;;8.29
73662;BMP280;61956;52.540;13.382;2023-01-08T01:24:39;82955.03;;;8.24
73662;BMP280;61956;52.540;13.382;2023-01-08T01:27:09;83372.41;;;8.23
73662;BMP280;61956;52.540;13.382;2023-01-08T01:29:38;82669.34;;;8.19
73662;BMP280;61956;52.540;13.382;2023-01-08T01:32:07;81733.72;;;8.10
73662;BMP280;61956;52.540;13.382;2023-01-08T01:34:37;81724.78;;;8.09
73662;BMP280;61956;52.540;13.382;2023-01-08T01:37:11;81697.88;;;8.06
73662;BMP280;61956;52.540;13.382;2023-01-08T01:39:41;80656.41;;;7.98
73662;BMP280;61956;52.540;13.382;2023-01-08T01:42:12;80745.06;;;7.95
73662;BMP280;61956;52.540;13.382;2023-01-08T01:45:05;81383.78;;;7.97
73662;BMP280;61956;52.540;13.382;2023-01-08T01:47:54;80844.53;;;7.92
73662;BMP280;61956;52.540;13.382;2023-01-08T01:50:31;81100.41;;;7.92
73662;BMP280;61956;52.540;13.382;2023-01-08T01:53:08;81344.78;;;7.92
73662;BMP280;61956;52.540;13.382;2023-01-08T01:55:41;80960.72;;;7.89
73662;BMP280;61956;52.540;13.382;2023-01-08T01:58:13;79585.53;;;7.77
73662;BMP280;61956;52.540;13.382;2023-01-08T02:00:44;79891.91;;;7.76
73662;BMP280;61956;52.540;13.382;2023-01-08T02:03:15;79187.41;;;7.70
73662;BMP280;61956;52.540;13.382;2023-01-08T02:05:55;79184.38;;;7.68
73662;BMP280;61956;52.540;13.382;2023-01-08T02:08:34;80020.34;;;7.72
73662;BMP280;61956;52.540;13.382;2023-01-08T02:11:11;78715.28;;;7.61
73662;BMP280;61956;52.540;13.382;2023-01-08T02:13:45;78200.84;;;7.55
73662;BMP280;61956;52.540;13.382;2023-01-08T02:16:26;78046.13;;;7.52
73662;BMP280;61956;52.540;13.382;2023-01-08T02:19:06;79190.13;;;7.57
73662;BMP280;61956;52.540;13.382;2023-01-08T02:21:59;79881.19;;;7.61
73662;BMP280;61956;52.540;13.382;2023-01-08T02:24:45;78905.28;;;7.55
73662;BMP280;61956;52.540;13.382;2023-01-08T02:27:24;78403.66;;;7.49
73662;BMP280;61956;52.540;13.382;2023-01-08T02:29:59;79390.81;;;7.54
73662;BMP280;61956;52.540;13.382;2023-01-08T02:32:33;77660.50;;;7.40
73662;BMP280;61956;52.540;13.382;2023-01-08T02:35:07;77619.16;;;7.37
73662;BMP280;61956;52.540;13.382;2023-01-08T02:37:37;77039.88;;;7.32
73662;BMP280;61956;52.540;13.382;2023-01-08T02:40:17;79067.44;;;7.43
73662;BMP280;61956;52.540;13.382;2023-01-08T02:43:00;79232.59;;;7.44
73662;BMP280;61956;52.540;13.382;2023-01-08T02:45:37;79254.44;;;7.43
73662;BMP280;61956;52.540;13.382;2023-01-08T02:48:14;77725.81;;;7.32
73662;BMP280;61956;52.540;13.382;2023-01-08T02:50:52;77878.81;;;7.31
73662;BMP280;61956;52.540;13.382;2023-01-08T02:53:28;78833.56;;;7.35
73662;BMP280;61956;52.540;13.382;2023-01-08T02:56:02;77387.91;;;7.25
73662;BMP280;61956;52.540;13.382;2023-01-08T02:58:39;78256.03;;;7.28
73662;BMP280;61956;52.540;13.382;2023-01-08T03:01:14;77517.41;;;7.22
73662;BMP280;61956;52.540;13.382;2023-01-08T03:03:50;77471.53;;;7.20
73662;BMP280;61956;52.540;13.382;2023-01-08T03:06:23;77697.94;;;7.21
73662;BMP280;61956;52.540;13.382;2023-01-08T03:08:54;77048.50;;;7.15
73662;BMP280;61956;52.540;13.382;2023-01-08T03:11:24;77749.47;;;7.17
73662;BMP280;61956;52.540;13.382;2023-01-08T03:14:05;77635.66;;;7.16
73662;BMP280;61956;52.540;13.382;2023-01-08T03:16:41;78642.50;;;7.21
73662;BMP280;61956;52.540;13.382;2023-01-08T03:19:19;78131.41;;;7.18
73662;BMP280;61956;52.540;13.382;2023-01-08T03:21:51;78675.91;;;7.19
73662;BMP280;61956;52.540;13.382;2023-01-08T03:24:23;77972.28;;;7.15
73662;BMP280;61956;52.540;13.382;2023-01-08T03:26:56;77954.53;;;7.13
73662;BMP280;61956;52.540;13.382;2023-01-08T03:29:33;77579.31;;;7.09
73662;BMP280;61956;52.540;13.382;2023-01-08T03:32:05;78030.88;;;7.10
73662;BMP280;61956;52.540;13.382;2023-01-08T03:34:40;77814.13;;;7.09
73662;BMP280;61956;52.540;13.382;2023-01-08T03:37:13;78047.00;;;7.09
73662;BMP280;61956;52.540;13.382;2023-01-08T03:39:48;77666.63;;;7.05
73662;BMP280;61956;52.540;13.382;2023-01-08T03:42:24;77632.19;;;7.04
73662;BMP280;61956;52.540;13.382;2023-01-08T03:44:58;78310.75;;;7.07
73662;BMP280;61956;52.540;13.382;2023-01-08T03:47:28;77563.28;;;7.02
73662;BMP280;61956;52.540;13.382;2023-01-08T03:50:06;77846.69;;;7.02
73662;BMP280;61956;52.540;13.382;2023-01-08T03:52:38;76847.81;;;6.94
73662;BMP280;61956;52.540;13.382;2023-01-08T03:55:08;77781.72;;;6.99
73662;BMP280;61956;52.540;13.382;2023-01-08T03:57:38;77509.31;;;6.98
73662;BMP280;61956;52.540;13.382;2023-01-08T04:00:11;77657.28;;;6.95
73662;BMP280;61956;52.540;13.382;2023-01-08T04:02:41;78407.84;;;7.00
73662;BMP280;61956;52.540;13.382;2023-01-08T04:05:10;78455.88;;;7.00
73662;BMP280;61956;52.540;13.382;2023-01-08T04:07:39;78039.06;;;6.96
73662;BMP280;61956;52.540;13.382;2023-01-08T04:10:09;77798.75;;;6.94
73662;BMP280;61956;52.540;13.382;2023-01-08T04:12:40;78707.41;;;6.98
73662;BMP280;61956;52.540;13.382;2023-01-08T04:15:13;77413.41;;;6.90
73662;BMP280;61956;52.540;13.382;2023-01-08T04:17:42;77983.72;;;6.92
73662;BMP280;61956;52.540;13.382;2023-01-08T04:20:11;77322.91;;;6.87
73662;BMP280;61956;52.540;13.382;2023-01-08T04:22:41;76334.16;;;6.79
73662;BMP280;61956;52.540;13.382;2023-01-08T04:25:10;76496.59;;;6.78
73662;BMP280;61956;52.540;13.382;2023-01-08T04:27:39;77509.97;;;6.83
73662;BMP280;61956;52.540;13.382;2023-01-08T04:30:09;77037.84;;;6.79
73662;BMP280;61956;52.540;13.382;2023-01-08T04:32:41;77048.06;;;6.79
73662;BMP280;61956;52.540;13.382;2023-01-08T04:35:11;77458.38;;;6.80
73662;BMP280;61956;52.540;13.382;2023-01-08T04:37:41;77711.44;;;6.82
73662;BMP280;61956;52.540;13.382;2023-01-08T04:40:10;76441.56;;;6.72
73662;BMP280;61956;52.540;13.382;2023-01-08T04:42:39;77028.19;;;6.73
73662;BMP280;61956;52.540;13.382;2023-01-08T04:45:09;77144.44;;;6.74
73662;BMP280;61956;52.540;13.382;2023-01-08T04:47:41;76989.81;;;6.73
73662;BMP280;61956;52.540;13.382;2023-01-08T04:50:10;77338.75;;;6.74
73662;BMP280;61956;52.540;13.382;2023-01-08T04:52:39;77244.34;;;6.72
73662;BMP280;61956;52.540;13.382;2023-01-08T04:55:09;78219.56;;;6.77
73662;BMP280;61956;52.540;13.382;2023-01-08T04:57:38;78265.59;;;6.77
73662;BMP280;61956;52.540;13.382;2023-01-08T05:00:08;79009.09;;;6.83
73662;BMP280;61956;52.540;13.382;2023-01-08T05:02:41;81030.31;;;6.97
73662;BMP280;61956;52.540;13.382;2023-01-08T05:05:10;81829.44;;;7.03
73662;BMP280;61956;52.540;13.382;2023-01-08T05:07:39;82789.16;;;7.10
73662;BMP280;61956;52.540;13.382;2023-01-08T05:10:09;81971.63;;;7.06
73662;BMP280;61956;52.540;13.382;2023-01-08T05:12:38;82457.22;;;7.11
73662;BMP280;61956;52.540;13.382;2023-01-08T05:15:08;82198.38;;;7.09
73662;BMP280;61956;52.540;13.382;2023-01-08T05:17:40;82456.56;;;7.10
73662;BMP280;61956;52.540;13.382;2023-01-08T05:20:10;82724.44;;;7.13
73662;BMP280;61956;52.540;13.382;2023-01-08T05:22:39;81766.56;;;7.08
73662;BMP280;61956;52.540;13.382;2023-01-08T05:25:09;82934.66;;;7.13
73662;BMP280;61956;52.540;13.382;2023-01-08T05:27:39;83042.31;;;7.16
73662;BMP280;61956;52.540;13.382;2023-01-08T05:30:09;83206.41;;;7.18
73662;BMP280;61956;52.540;13.382;2023-01-08T05:32:42;82577.66;;;7.13
73662;BMP280;61956;52.540;13.382;2023-01-08T05:35:11;82296.38;;;7.11
73662;BMP280;61956;52.540;13.382;2023-01-08T05:37:40;84259.34;;;7.25
73662;BMP280;61956;52.540;13.382;2023-01-08T05:40:10;83446.84;;;7.21
73662;BMP280;61956;52.540;13.382;2023-01-08T05:42:40;83819.41;;;7.24
73662;BMP280;61956;52.540;13.382;2023-01-08T05:45:09;84046.44;;;7.25
73662;BMP280;61956;52.540;13.382;2023-01-08T05:47:42;84839.38;;;7.31
73662;BMP280;61956;52.540;13.382;2023-01-08T05:50:12;85472.19;;;7.36
73662;BMP280;61956;52.540;13.382;2023-01-08T05:52:41;86265.78;;;7.42
73662;BMP280;61956;52.540;13.382;2023-01-08T05:55:10;86724.50;;;7.47
73662;BMP280;61956;52.540;13.382;2023-01-08T05:57:39;86811.31;;;7.49
73662;BMP280;61956;52.540;13.382;2023-01-08T06:00:10;87126.16;;;7.52
73662;BMP280;61956;52.540;13.382;2023-01-08T06:02:44;87576.78;;;7.56
73662;BMP280;61956;52.540;13.382;2023-01-08T06:05:14;87725.31;;;7.58
73662;BMP280;61956;52.540;13.382;2023-01-08T06:07:43;87735.75;;;7.60
73662;BMP280;61956;52.540;13.382;2023-01-08T06:10:12;87816.22;;;7.63
73662;BMP280;61956;52.540;13.382;2023-01-08T06:12:41;88040.69;;;7.65
73662;BMP280;61956;52.540;13.382;2023-01-08T06:15:11;88286.25;;;7.66
73662;BMP280;61956;52.540;13.382;2023-01-08T06:17:43;88418.25;;;7.69
73662;BMP280;61956;52.540;13.382;2023-01-08T06:20:12;88636.47;;;7.72
73662;BMP280;61956;52.540;13.382;2023-01-08T06:22:41;88876.97;;;7.73
73662;BMP280;61956;52.540;13.382;2023-01-08T06:25:11;88771.03;;;7.75
73662;BMP280;61956;52.540;13.382;2023-01-08T06:27:40;88692.50;;;7.74
73662;BMP280;61956;52.540;13.382;2023-01-08T06:30:10;89103.69;;;7.77
73662;BMP280;61956;52.540;13.382;2023-01-08T06:32:39;89199.06;;;7.79
73662;BMP280;61956;52.540;13.382;2023-01-08T06:35:11;89252.56;;;7.81
73662;BMP280;61956;52.540;13.382;2023-01-08T06:37:40;89068.78;;;7.82
73662;BMP280;61956;52.540;13.382;2023-01-08T06:40:10;89163.22;;;7.81
73662;BMP280;61956;52.540;13.382;2023-01-08T06:42:39;89404.06;;;7.85
73662;BMP280;61956;52.540;13.382;2023-01-08T06:45:10;89514.84;;;7.87
73662;BMP280;61956;52.540;13.382;2023-01-08T06:47:39;89503.41;;;7.88
73662;BMP280;61956;52.540;13.382;2023-01-08T06:50:11;89652.13;;;7.89
73662;BMP280;61956;52.540;13.382;2023-01-08T06:52:40;89621.97;;;7.90
73662;BMP280;61956;52.540;13.382;2023-01-08T06:55:10;89735.88;;;7.90
73662;BMP280;61956;52.540;13.382;2023-01-08T06:57:39;89708.97;;;7.91
73662;BMP280;61956;52.540;13.382;2023-01-08T07:00:09;89554.59;;;7.91
73662;BMP280;61956;52.540;13.382;2023-01-08T07:02:39;89739.38;;;7.93
73662;BMP280;61956;52.540;13.382;2023-01-08T07:05:11;90054.91;;;7.96
73662;BMP280;61956;52.540;13.382;2023-01-08T07:07:40;90020.31;;;7.97
73662;BMP280;61956;52.540;13.382;2023-01-08T07:10:09;90433.06;;;7.99
73662;BMP280;61956;52.540;13.382;2023-01-08T07:12:39;90604.59;;;8.02
73662;BMP280;61956;52.540;13.382;2023-01-08T07:15:09;90424.41;;;8.02
73662;BMP280;61956;52.540;13.382;2023-01-08T07:17:38;90406.38;;;8.02
73662;BMP280;61956;52.540;13.382;2023-01-08T07:20:11;90466.28;;;8.03
73662;BMP280;61956;52.540;13.382;2023-01-08T07:22:40;90679.03;;;8.06
73662;BMP280;61956;52.540;13.382;2023-01-08T07:25:09;90908.44;;;8.08
73662;BMP280;61956;52.540;13.382;2023-01-08T07:27:38;91257.03;;;8.11
73662;BMP280;61956;52.540;13.382;2023-01-08T07:30:08;91645.31;;;8.16
73662;BMP280;61956;52.540;13.382;2023-01-08T07:32:37;92035.28;;;8.18
73662;BMP280;61956;52.540;13.382;2023-01-08T07:35:07;92104.03;;;8.21
73662;BMP280;61956;52.540;13.382;2023-01-08T07:37:41;92215.09;;;8.23
73662;BMP280;61956;52.540;13.382;2023-01-08T07:40:11;92348.28;;;8.26
73662;BMP280;61956;52.540;13.382;2023-01-08T07:42:40;92098.75;;;8.25
73662;BMP280;61956;52.540;13.382;2023-01-08T07:45:10;91703.13;;;8.24
73662;BMP280;61956;52.540;13.382;2023-01-08T07:47:39;91384.16;;;8.22
73662;BMP280;61956;52.540;13.382;2023-01-08T07:50:09;91202.44;;;8.21
73662;BMP280;61956;52.540;13.382;2023-01-08T07:52:40;91354.66;;;8.23
73662;BMP280;61956;52.540;13.382;2023-01-08T07:55:10;91092.13;;;8.20
73662;BMP280;61956;52.540;13.382;2023-01-08T07:57:39;91107.13;;;8.21
73662;BMP280;61956;52.540;13.382;2023-01-08T08:00:10;91250.22;;;8.22
73662;BMP280;61956;52.540;13.382;2023-01-08T08:02:39;90912.56;;;8.20
73662;BMP280;61956;52.540;13.382;2023-01-08T08:05:08;90933.41;;;8.22
73662;BMP280;61956;52.540;13.382;2023-01-08T08:07:40;91144.59;;;8.22
73662;BMP280;61956;52.540;13.382;2023-01-08T08:10:09;91183.53;;;8.24
73662;BMP280;61956;52.540;13.382;2023-01-08T08:12:39;91201.53;;;8.24
73662;BMP280;61956;52.540;13.382;2023-01-08T08:15:09;91258.91;;;8.25
73662;BMP280;61956;52.540;13.382;2023-01-08T08:17:39;91547.00;;;8.26
73662;BMP280;61956;52.540;13.382;2023-01-08T08:20:12;91651.03;;;8.29
73662;BMP280;61956;52.540;13.382;2023-01-08T08:22:47;91583.31;;;8.28
73662;BMP280;61956;52.540;13.382;2023-01-08T08:25:16;91503.44;;;8.28
73662;BMP280;61956;52.540;13.382;2023-01-08T08:27:45;91294.56;;;8.26
73662;BMP280;61956;52.540;13.382;2023-01-08T08:30:15;91662.75;;;8.30
73662;BMP280;61956;52.540;13.382;2023-01-08T08:32:44;91617.09;;;8.30
73662;BMP280;61956;52.540;13.382;2023-01-08T08:35:16;91419.88;;;8.29
73662;BMP280;61956;52.540;13.382;2023-01-08T08:37:47;91485.69;;;8.30
73662;BMP280;61956;52.540;13.382;2023-01-08T08:40:17;91505.16;;;8.32
73662;BMP280;61956;52.540;13.382;2023-01-08T08:42:46;91296.22;;;8.29
73662;BMP280;61956;52.540;13.382;2023-01-08T08:45:15;91548.97;;;8.32
73662;BMP280;61956;52.540;13.382;2023-01-08T08:47:44;91896.66;;;8.35
73662;BMP280;61956;52.540;13.382;2023-01-08T08:50:14;92182.56;;;8.39
73662;BMP280;61956;52.540;13.382;2023-01-08T08:52:43;92646.38;;;8.42
73662;BMP280;61956;52.540;13.382;2023-01-08T08:55:16;92743.94;;;8.44
73662;BMP280;61956;52.540;13.382;2023-01-08T08:57:46;92706.72;;;8.45
73662;BMP280;61956;52.540;13.382;2023-01-08T09:00:16;92496.50;;;8.44
73662;BMP280;61956;52.540;13.382;2023-01-08T09:02:48;92496.06;;;8.45
73662;BMP280;61956;52.540;13.382;2023-01-08T09:05:18;92792.84;;;8.47
73662;BMP280;61956;52.540;13.382;2023-01-08T09:07:47;93176.94;;;8.51
73662;BMP280;61956;52.540;13.382;2023-01-08T09:10:19;93391.28;;;8.53
73662;BMP280;61956;52.540;13.382;2023-01-08T09:12:48;93625.22;;;8.56
73662;BMP280;61956;52.540;13.382;2023-01-08T09:15:18;94088.72;;;8.59
73662;BMP280;61956;52.540;13.382;2023-01-08T09:17:51;94244.28;;;8.63
73662;BMP280;61956;52.540;13.382;2023-01-08T09:20:23;94571.97;;;8.67
73662;BMP280;61956;52.540;13.382;2023-01-08T09:22:57;95211.69;;;8.72
73662;BMP280;61956;52.540;13.382;2023-01-08T09:25:31;95174.09;;;8.74
73662;BMP280;61956;52.540;13.382;2023-01-08T09:28:03;95453.00;;;8.78
73662;BMP280;61956;52.540;13.382;2023-01-08T09:30:34;95610.09;;;8.80
73662;BMP280;61956;52.540;13.382;2023-01-08T09:33:04;95487.31;;;8.82
73662;BMP280;61956;52.540;13.382;2023-01-08T09:35:33;95553.41;;;8.83
73662;BMP280;61956;52.540;13.382;2023-01-08T09:38:02;95356.06;;;8.84
73662;BMP280;61956;52.540;13.382;2023-01-08T09:40:38;95115.22;;;8.84
73662;BMP280;61956;52.540;13.382;2023-01-08T09:43:15;94713.22;;;8.81
73662;BMP280;61956;52.540;13.382;2023-01-08T09:45:49;94595.97;;;8.82
73662;BMP280;61956;52.540;13.382;2023-01-08T09:48:24;94603.34;;;8.83
73662;BMP280;61956;52.540;13.382;2023-01-08T09:50:57;94225.44;;;8.81
73662;BMP280;61956;52.540;13.382;2023-01-08T09:53:26;94175.63;;;8.80
73662;BMP280;61956;52.540;13.382;2023-01-08T09:56:02;94270.75;;;8.82
73662;BMP280;61956;52.540;13.382;2023-01-08T09:58:39;94216.56;;;8.82
73662;BMP280;61956;52.540;13.382;2023-01-08T10:01:13;94574.59;;;8.85
73662;BMP280;61956;52.540;13.382;2023-01-08T10:03:47;94837.53;;;8.86
73662;BMP280;61956;52.540;13.382;2023-01-08T10:06:22;94947.09;;;8.89
73662;BMP280;61956;52.540;13.382;2023-01-08T10:08:52;94948.56;;;8.90
73662;BMP280;61956;52.540;13.382;2023-01-08T10:11:25;94265.22;;;8.87
73662;BMP280;61956;52.540;13.382;2023-01-08T10:13:58;94046.97;;;8.86
73662;BMP280;61956;52.540;13.382;2023-01-08T10:16:29;94271.13;;;8.87
73662;BMP280;61956;52.540;13.382;2023-01-08T10:19:02;94288.09;;;8.88
73662;BMP280;61956;52.540;13.382;2023-01-08T10:21:37;94462.47;;;8.89
73662;BMP280;61956;52.540;13.382;2023-01-08T10:24:08;94526.66;;;8.91
73662;BMP280;61956;52.540;13.382;2023-01-08T10:26:39;94201.06;;;8.89
73662;BMP280;61956;52.540;13.382;2023-01-08T10:29:12;93575.09;;;8.84
73662;BMP280;61956;52.540;13.382;2023-01-08T10:31:47;93230.88;;;8.82
73662;BMP280;61956;52.540;13.382;2023-01-08T10:34:25;93217.25;;;8.81
73662;BMP280;61956;52.540;13.382;2023-01-08T10:37:14;93122.91;;;8.80
73662;BMP280;61956;52.540;13.382;2023-01-08T10:39:50;92929.88;;;8.79
73662;BMP280;61956;52.540;13.382;2023-01-08T10:42:24;92919.56;;;8.79
73662;BMP280;61956;52.540;13.382;2023-01-08T10:44:57;93144.00;;;8.79
73662;BMP280;61956;52.540;13.382;2023-01-08T10:47:30;93187.41;;;8.80
73662;BMP280;61956;52.540;13.382;2023-01-08T10:50:05;93270.72;;;8.81
73662;BMP280;61956;52.540;13.382;2023-01-08T10:52:52;93401.88;;;8.82
73662;BMP280;61956;52.540;13.382;2023-01-08T10:55:24;93002.81;;;8.79
73662;BMP280;61956;52.540;13.382;2023-01-08T10:57:59;92669.03;;;8.76
73662;BMP280;61956;52.540;13.382;2023-01-08T11:00:31;92667.19;;;8.77
73662;BMP280;61956;52.540;13.382;2023-01-08T11:03:04;92801.31;;;8.77
73662;BMP280;61956;52.540;13.382;2023-01-08T11:05:36;92981.47;;;8.79
73662;BMP280;61956;52.540;13.382;2023-01-08T11:08:15;93467.50;;;8.81
73662;BMP280;61956;52.540;13.382;2023-01-08T11:10:53;93341.09;;;8.81
73662;BMP280;61956;52.540;13.382;2023-01-08T11:13:27;93290.22;;;8.82
73662;BMP280;61956;52.540;13.382;2023-01-08T11:16:03;94517.81;;;8.92
73662;BMP280;61956;52.540;13.382;2023-01-08T11:18:42;96250.50;;;9.04
73662;BMP280;61956;52.540;13.382;2023-01-08T11:21:19;97263.13;;;9.14
73662;BMP280;61956;52.540;13.382;2023-01-08T11:24:02;97816.72;;;9.21
73662;BMP280;61956;52.540;13.382;2023-01-08T11:26:43;97732.66;;;9.24
73662;BMP280;61956;52.540;13.382;2023-01-08T11:29:23;97125.41;;;9.22
73662;BMP280;61956;52.540;13.382;2023-01-08T11:32:07;96944.44;;;9.22
73662;BMP280;61956;52.540;13.382;2023-01-08T11:34:53;96188.56;;;9.20
73662;BMP280;61956;52.540;13.382;2023-01-08T11:37:26;96728.06;;;9.23
73662;BMP280;61956;52.540;13.382;2023-01-08T11:39:56;97524.63;;;9.30
73662;BMP280;61956;52.540;13.382;2023-01-08T11:42:37;97140.41;;;9.29
73662;BMP280;61956;52.540;13.382;2023-01-08T11:45:23;96338.25;;;9.25
73662;BMP280;61956;52.540;13.382;2023-01-08T11:48:15;96481.91;;;9.26
73662;BMP280;61956;52.540;13.382;2023-01-08T11:51:15;96785.50;;;9.29
73662;BMP280;61956;52.540;13.382;2023-01-08T11:54:05;97164.34;;;9.35
73662;BMP280;61956;52.540;13.382;2023-01-08T11:56:51;97006.63;;;9.35
73662;BMP280;61956;52.540;13.382;2023-01-08T12:00:02;97212.84;;;9.38
73662;BMP280;61956;52.540;13.382;2023-01-08T12:02:50;97438.28;;;9.40
73662;BMP280;61956;52.540;13.382;2023-01-08T12:05:24;97382.91;;;9.41
73662;BMP280;61956;52.540;13.382;2023-01-08T12:08:01;97494.31;;;9.44
73662;BMP280;61956;52.540;13.382;2023-01-08T12:10:40;97712.78;;;9.47
73662;BMP280;61956;52.540;13.382;2023-01-08T12:13:27;97742.00;;;9.47
73662;BMP280;61956;52.540;13.382;2023-01-08T12:16:18;98037.88;;;9.52
73662;BMP280;61956;52.540;13.382;2023-01-08T12:19:17;98262.09;;;9.56
73662;BMP280;61956;52.540;13.382;2023-01-08T12:22:04;98247.38;;;9.57
73662;BMP280;61956;52.540;13.382;2023-01-08T12:25:20;98222.00;;;9.59
73662;BMP280;61956;52.540;13.382;2023-01-08T12:28:14;98433.88;;;9.60
73662;BMP280;61956;52.540;13.382;2023-01-08T12:31:10;98622.00;;;9.65
73662;BMP280;61956;52.540;13.382;2023-01-08T12:33:59;98277.50;;;9.66
73662;BMP280;61956;52.540;13.382;2023-01-08T12:36:40;98277.50;;;9.66
73662;BMP280;61956;52.540;13.382;2023-01-08T12:39:20;97969.09;;;9.64
73662;BMP280;61956;52.540;13.382;2023-01-08T12:42:01;97481.13;;;9.63
73662;BMP280;61956;52.540;13.382;2023-01-08T12:44:39;97122.91;;;9.61
73662;BMP280;61956;52.540;13.382;2023-01-08T12:47:15;96707.13;;;9.58
73662;BMP280;61956;52.540;13.382;2023-01-08T12:50:00;96341.34;;;9.55
73662;BMP280;61956;52.540;13.382;2023-01-08T12:52:49;96519.41;;;9.57
73662;BMP280;61956;52.540;13.382;2023-01-08T12:55:32;96281.09;;;9.55
73662;BMP280;61956;52.540;13.382;2023-01-08T12:58:18;96278.53;;;9.55
73662;BMP280;61956;52.540;13.382;2023-01-08T13:01:03;96391.94;;;9.56
73662;BMP280;61956;52.540;13.382;2023-01-08T13:03:51;96341.34;;;9.55
73662;BMP280;61956;52.540;13.382;2023-01-08T13:06:25;96362.44;;;9.57
73662;BMP280;61956;52.540;13.382;2023-01-08T13:08:55;96223.09;;;9.56
73662;BMP280;61956;52.540;13.382;2023-01-08T13:11:28;96190.25;;;9.56
73662;BMP280;61956;52.540;13.382;2023-01-08T13:14:01;95889.97;;;9.54
73662;BMP280;61956;52.540;13.382;2023-01-08T13:16:35;95560.13;;;9.53
73662;BMP280;61956;52.540;13.382;2023-01-08T13:19:20;95730.00;;;9.53
73662;BMP280;61956;52.540;13.382;2023-01-08T13:21:56;95611.41;;;9.51
73662;BMP280;61956;52.540;13.382;2023-01-08T13:24:31;95285.34;;;9.49
73662;BMP280;61956;52.540;13.382;2023-01-08T13:27:26;94895.84;;;9.46
73662;BMP280;61956;52.540;13.382;2023-01-08T13:29:57;94505.66;;;9.42
73662;BMP280;61956;52.540;13.382;2023-01-08T13:32:39;94376.84;;;9.41
73662;BMP280;61956;52.540;13.382;2023-01-08T13:35:24;94037.03;;;9.36
73662;BMP280;61956;52.540;13.382;2023-01-08T13:38:16;94055.84;;;9.37
73662;BMP280;61956;52.540;13.382;2023-01-08T13:40:53;93998.66;;;9.35
73662;BMP280;61956;52.540;13.382;2023-01-08T13:43:27;93926.34;;;9.35
73662;BMP280;61956;52.540;13.382;2023-01-08T13:46:13;93966.19;;;9.34
73662;BMP280;61956;52.540;13.382;2023-01-08T13:48:50;93629.38;;;9.31
73662;BMP280;61956;52.540;13.382;2023-01-08T13:51:46;93600.97;;;9.31
73662;BMP280;61956;52.540;13.382;2023-01-08T13:54:32;93579.25;;;9.29
73662;BMP280;61956;52.540;13.382;2023-01-08T13:57:11;93397.06;;;9.28
73662;BMP280;61956;52.540;13.382;2023-01-08T13:59:47;93241.81;;;9.26
73662;BMP280;61956;52.540;13.382;2023-01-08T14:02:26;93024.63;;;9.23
73662;BMP280;61956;52.540;13.382;2023-01-08T14:04:58;93104.66;;;9.23
73662;BMP280;61956;52.540;13.382;2023-01-08T14:07:28;93134.19;;;9.22
73662;BMP280;61956;52.540;13.382;2023-01-08T14:10:11;93111.69;;;9.23
73662;BMP280;61956;52.540;13.382;2023-01-08T14:12:41;92837.41;;;9.19
73662;BMP280;61956;52.540;13.382;2023-01-08T14:15:19;92709.53;;;9.18
73662;BMP280;61956;52.540;13.382;2023-01-08T14:17:51;92656.44;;;9.17
73662;BMP280;61956;52.540;13.382;2023-01-08T14:20:29;92385.19;;;9.15
73662;BMP280;61956;52.540;13.382;2023-01-08T14:23:01;92294.56;;;9.13
73662;BMP280;61956;52.540;13.382;2023-01-08T14:25:39;92185.88;;;9.11
73662;BMP280;61956;52.540;13.382;2023-01-08T14:28:14;92199.50;;;9.11
73662;BMP280;61956;52.540;13.382;2023-01-08T14:30:49;92095.31;;;9.09
73662;BMP280;61956;52.540;13.382;2023-01-08T14:33:22;92070.66;;;9.08
73662;BMP280;61956;52.540;13.382;2023-01-08T14:35:54;92012.44;;;9.07
73662;BMP280;61956;52.540;13.382;2023-01-08T14:38:24;92046.00;;;9.07
73662;BMP280;61956;52.540;13.382;2023-01-08T14:41:02;91928.91;;;9.04
73662;BMP280;61956;52.540;13.382;2023-01-08T14:43:38;92046.84;;;9.04
73662;BMP280;61956;52.540;13.382;2023-01-08T14:46:20;92104.31;;;9.04
73662;BMP280;61956;52.540;13.382;2023-01-08T14:48:54;91837.19;;;9.03